Time,TemperatureF,DewpointF,PressureIn,WindDirection,WindDirectionDegrees,WindSpeedMPH,WindSpeedGustMPH,Humidity,HourlyPrecipIn,Conditions,Clouds,dailyrainin,SolarRadiationWatts/m^2,SoftwareType,DateUTC
2013-04-07 00:12:00,43.0,39.0,-100.00,SSE,167,5.0,7.0,85,-99.99,,,0.00,0.000000,,2013-04-07 07:12:00,
2013-04-07 01:12:00,44.0,39.0,-100.00,South,188,4.0,8.0,84,-99.99,,,0.00,0.000000,,2013-04-07 08:12:00,
2013-04-07 02:12:00,45.0,39.0,-100.00,SSW,201,9.0,12.0,79,-99.99,,,0.00,0.000000,,2013-04-07 09:12:00,
2013-04-07 03:13:00,45.0,38.0,-100.00,South,185,13.0,17.0,76,-99.99,,,0.00,0.000000,,2013-04-07 10:13:00,
2013-04-07 04:12:00,45.0,38.0,-100.00,SSW,199,12.0,24.0,74,-99.99,,,0.00,0.000000,,2013-04-07 11:12:00,
2013-04-07 05:12:00,45.0,38.0,-100.00,SSW,201,11.0,17.0,77,-99.99,,,0.00,0.000000,,2013-04-07 12:12:00,
2013-04-07 06:13:00,47.0,34.0,-100.00,WSW,257,21.0,30.0,60,-99.99,,,0.00,0.000000,,2013-04-07 13:13:00,
2013-04-07 07:12:00,45.0,35.0,-100.00,WSW,254,26.0,34.0,66,-99.99,,,0.00,0.000000,,2013-04-07 14:12:00,
2013-04-07 08:12:00,45.0,33.0,-100.00,WSW,257,27.0,35.0,63,-99.99,,,0.00,53.810001,,2013-04-07 15:12:00,
2013-04-07 09:13:00,46.0,32.0,-100.00,West,273,23.0,36.0,58,-99.99,,,0.00,258.119995,,2013-04-07 16:13:00,
2013-04-07 10:13:00,46.0,31.0,-100.00,West,262,26.0,34.0,55,-99.99,,,0.00,468.600006,,2013-04-07 17:13:00,
2013-04-07 12:12:00,47.0,33.0,-100.00,WSW,240,21.0,29.0,58,-99.99,,,0.00,526.239990,,2013-04-07 19:12:00,
2013-04-07 13:13:00,48.0,31.0,-100.00,WSW,251,21.0,32.0,51,-99.99,,,0.00,797.969971,,2013-04-07 20:13:00,
2013-04-07 14:13:00,48.0,29.0,-100.00,West,265,17.0,27.0,47,-99.99,,,-99.99,622.239990,,2013-04-07 21:13:00,
2013-04-07 15:13:00,46.0,29.0,-100.00,WNW,292,22.0,32.0,51,-99.99,,,0.00,325.299988,,2013-04-07 22:13:00,
2013-04-07 16:12:00,47.0,30.0,-100.00,WNW,295,12.0,19.0,51,-99.99,,,0.00,441.519989,,2013-04-07 23:12:00,
2013-04-07 17:12:00,48.0,24.0,-100.00,WNW,289,19.0,30.0,39,-99.99,,,0.00,470.690002,,2013-04-08 00:12:00,
2013-04-07 18:12:00,46.0,26.0,-100.00,WSW,250,13.0,19.0,45,-99.99,,,0.00,218.610001,,2013-04-08 01:12:00,
2013-04-07 19:12:00,44.0,27.0,-100.00,WNW,283,11.0,14.0,51,-99.99,,,0.00,248.009995,,2013-04-08 02:12:00,
2013-04-07 20:14:00,42.0,27.0,-100.00,NW,325,8.0,13.0,54,-99.99,,,0.00,27.660000,,2013-04-08 03:14:00,
2013-04-07 21:12:00,37.0,27.0,-100.00,South,178,2.0,3.0,64,-99.99,,,0.00,0.000000,,2013-04-08 04:12:00,
2013-04-07 22:12:00,37.0,25.0,-100.00,West,264,1.0,3.0,63,-99.99,,,0.00,0.000000,,2013-04-08 05:12:00,
2013-04-07 23:12:00,35.0,26.0,-100.00,South,188,4.0,5.0,69,-99.99,,,0.00,0.000000,,2013-04-08 06:12:00,